sensor_id;sensor_type;location;lat;lon;timestamp;temperature;humidity
5017;DHT22;2527;50.892;16.706;2023-05-19T00:00:59;13.60;99.90
5017;DHT22;2527;50.892;16.706;2023-05-19T00:03:25;13.60;99.90
5017;DHT22;2527;50.892;16.706;2023-05-19T00:05:54;13.60;99.90
5017;DHT22;2527;50.892;16.706;2023-05-19T00:08:21;13.60;99.90
5017;DHT22;2527;50.892;16.706;2023-05-19T00:10:48;13.50;99.90
5017;DHT22;2527;50.892;16.706;2023-05-19T00:13:14;13.50;99.90
5017;DHT22;2527;50.892;16.706;2023-05-19T00:15:40;13.50;99.90
5017;DHT22;2527;50.892;16.706;2023-05-19T00:18:06;13.50;99.90
5017;DHT22;2527;50.892;16.706;2023-05-19T00:20:33;13.50;99.90
5017;DHT22;2527;50.892;16.706;2023-05-19T00:22:58;13.50;99.90
5017;DHT22;2527;50.892;16.706;2023-05-19T00:25:24;13.40;99.90
5017;DHT22;2527;50.892;16.706;2023-05-19T00:27:50;13.40;99.90
5017;DHT22;2527;50.892;16.706;2023-05-19T00:30:16;13.40;99.90
5017;DHT22;2527;50.892;16.706;2023-05-19T00:32:41;13.40;99.90
5017;DHT22;2527;50.892;16.706;2023-05-19T00:35:07;13.40;99.90
5017;DHT22;2527;50.892;16.706;2023-05-19T00:37:33;13.40;99.90
5017;DHT22;2527;50.892;16.706;2023-05-19T00:39:58;13.40;99.90
5017;DHT22;2527;50.892;16.706;2023-05-19T00:42:24;13.40;99.90
5017;DHT22;2527;50.892;16.706;2023-05-19T00:44:50;13.40;99.90
5017;DHT22;2527;50.892;16.706;2023-05-19T00:47:16;13.40;99.90
5017;DHT22;2527;50.892;16.706;2023-05-19T00:49:41;13.30;99.90
5017;DHT22;2527;50.892;16.706;2023-05-19T00:52:07;13.30;99.90
5017;DHT22;2527;50.892;16.706;2023-05-19T00:54:33;13.30;99.90
5017;DHT22;2527;50.892;16.706;2023-05-19T00:56:59;13.30;99.90
5017;DHT22;2527;50.892;16.706;2023-05-19T00:59:24;13.30;99.90
5017;DHT22;2527;50.892;16.706;2023-05-19T01:01:50;13.30;99.90
5017;DHT22;2527;50.892;16.706;2023-05-19T01:04:19;13.30;99.90
5017;DHT22;2527;50.892;16.706;2023-05-19T01:06:46;13.30;99.90
5017;DHT22;2527;50.892;16.706;2023-05-19T01:09:12;13.30;99.90
5017;DHT22;2527;50.892;16.706;2023-05-19T01:11:37;13.30;99.90
5017;DHT22;2527;50.892;16.706;2023-05-19T01:14:03;13.30;99.90
5017;DHT22;2527;50.892;16.706;2023-05-19T01:21:54;13.30;99.90
5017;DHT22;2527;50.892;16.706;2023-05-19T01:29:40;13.20;99.90
5017;DHT22;2527;50.892;16.706;2023-05-19T01:32:06;13.30;99.90
5017;DHT22;2527;50.892;16.706;2023-05-19T01:34:32;13.30;99.90
5017;DHT22;2527;50.892;16.706;2023-05-19T01:36:59;13.30;99.90
5017;DHT22;2527;50.892;16.706;2023-05-19T01:39:25;13.20;99.90
5017;DHT22;2527;50.892;16.706;2023-05-19T01:41:51;13.30;99.90
5017;DHT22;2527;50.892;16.706;2023-05-19T01:44:18;13.30;99.90
5017;DHT22;2527;50.892;16.706;2023-05-19T01:46:43;13.30;99.90
5017;DHT22;2527;50.892;16.706;2023-05-19T01:49:09;13.20;99.90
5017;DHT22;2527;50.892;16.706;2023-05-19T01:51:35;13.30;99.90
5017;DHT22;2527;50.892;16.706;2023-05-19T01:54:01;13.30;99.90
5017;DHT22;2527;50.892;16.706;2023-05-19T01:57:14;13.30;99.90
5017;DHT22;2527;50.892;16.706;2023-05-19T01:59:22;13.30;99.90
5017;DHT22;2527;50.892;16.706;2023-05-19T02:01:50;13.30;99.90
5017;DHT22;2527;50.892;16.706;2023-05-19T02:04:34;13.30;99.90
5017;DHT22;2527;50.892;16.706;2023-05-19T02:07:14;13.30;99.90
5017;DHT22;2527;50.892;16.706;2023-05-19T02:10:03;13.30;99.90
5017;DHT22;2527;50.892;16.706;2023-05-19T02:12:36;13.20;99.90
5017;DHT22;2527;50.892;16.706;2023-05-19T02:15:04;13.20;99.90
5017;DHT22;2527;50.892;16.706;2023-05-19T02:17:31;13.20;99.90
5017;DHT22;2527;50.892;16.706;2023-05-19T02:19:57;13.20;99.90
5017;DHT22;2527;50.892;16.706;2023-05-19T02:22:23;13.10;99.90
5017;DHT22;2527;50.892;16.706;2023-05-19T02:24:49;13.10;99.90
5017;DHT22;2527;50.892;16.706;2023-05-19T02:27:16;13.10;99.90
5017;DHT22;2527;50.892;16.706;2023-05-19T02:29:41;13.10;99.90
5017;DHT22;2527;50.892;16.706;2023-05-19T02:32:07;13.10;99.90
5017;DHT22;2527;50.892;16.706;2023-05-19T02:34:32;13.10;99.90
5017;DHT22;2527;50.892;16.706;2023-05-19T02:36:58;13.00;99.90
5017;DHT22;2527;50.892;16.706;2023-05-19T02:39:23;13.10;99.90
5017;DHT22;2527;50.892;16.706;2023-05-19T02:41:50;13.00;99.90
5017;DHT22;2527;50.892;16.706;2023-05-19T02:44:16;13.00;99.90
5017;DHT22;2527;50.892;16.706;2023-05-19T02:46:41;13.00;99.90
5017;DHT22;2527;50.892;16.706;2023-05-19T02:49:07;13.00;99.90
5017;DHT22;2527;50.892;16.706;2023-05-19T02:51:33;13.00;99.90
5017;DHT22;2527;50.892;16.706;2023-05-19T02:53:58;13.00;99.90
5017;DHT22;2527;50.892;16.706;2023-05-19T02:56:24;13.00;99.90
5017;DHT22;2527;50.892;16.706;2023-05-19T02:58:50;13.00;99.90
5017;DHT22;2527;50.892;16.706;2023-05-19T03:01:16;13.00;99.90
5017;DHT22;2527;50.892;16.706;2023-05-19T03:03:42;13.00;99.90
5017;DHT22;2527;50.892;16.706;2023-05-19T03:06:08;13.00;99.90
5017;DHT22;2527;50.892;16.706;2023-05-19T03:08:34;13.00;99.90
5017;DHT22;2527;50.892;16.706;2023-05-19T03:11:00;13.00;99.90
5017;DHT22;2527;50.892;16.706;2023-05-19T03:13:26;13.00;99.90
5017;DHT22;2527;50.892;16.706;2023-05-19T03:15:51;13.00;99.90
5017;DHT22;2527;50.892;16.706;2023-05-19T03:18:17;13.00;99.90
5017;DHT22;2527;50.892;16.706;2023-05-19T03:20:42;13.00;99.90
5017;DHT22;2527;50.892;16.706;2023-05-19T03:23:09;13.00;99.90
5017;DHT22;2527;50.892;16.706;2023-05-19T03:25:34;13.00;99.90
5017;DHT22;2527;50.892;16.706;2023-05-19T03:28:01;13.00;99.90
5017;DHT22;2527;50.892;16.706;2023-05-19T03:30:26;13.10;99.90
5017;DHT22;2527;50.892;16.706;2023-05-19T03:32:52;13.10;99.90
5017;DHT22;2527;50.892;16.706;2023-05-19T03:35:18;13.10;99.90
5017;DHT22;2527;50.892;16.706;2023-05-19T03:37:43;13.10;99.90
5017;DHT22;2527;50.892;16.706;2023-05-19T03:40:09;13.10;99.90
5017;DHT22;2527;50.892;16.706;2023-05-19T03:42:35;13.10;99.90
5017;DHT22;2527;50.892;16.706;2023-05-19T03:45:01;13.10;99.90
5017;DHT22;2527;50.892;16.706;2023-05-19T03:47:26;13.10;99.90
5017;DHT22;2527;50.892;16.706;2023-05-19T03:49:52;13.10;99.90
5017;DHT22;2527;50.892;16.706;2023-05-19T03:52:17;13.10;99.90
5017;DHT22;2527;50.892;16.706;2023-05-19T03:54:43;13.10;99.90
5017;DHT22;2527;50.892;16.706;2023-05-19T03:57:10;13.10;99.90
5017;DHT22;2527;50.892;16.706;2023-05-19T03:59:36;13.10;99.90
5017;DHT22;2527;50.892;16.706;2023-05-19T04:02:02;13.10;99.90
5017;DHT22;2527;50.892;16.706;2023-05-19T04:04:27;13.10;99.90
5017;DHT22;2527;50.892;16.706;2023-05-19T04:06:53;13.10;99.90
5017;DHT22;2527;50.892;16.706;2023-05-19T04:09:18;13.10;99.90
5017;DHT22;2527;50.892;16.706;2023-05-19T04:11:44;13.10;99.90
5017;DHT22;2527;50.892;16.706;2023-05-19T04:14:11;13.00;99.90
5017;DHT22;2527;50.892;16.706;2023-05-19T04:16:36;13.00;99.90
5017;DHT22;2527;50.892;16.706;2023-05-19T04:19:02;13.00;99.90
5017;DHT22;2527;50.892;16.706;2023-05-19T04:21:28;13.00;99.90
5017;DHT22;2527;50.892;16.706;2023-05-19T04:23:54;13.10;99.90
5017;DHT22;2527;50.892;16.706;2023-05-19T04:26:19;13.10;99.90
5017;DHT22;2527;50.892;16.706;2023-05-19T04:28:47;13.00;99.90
5017;DHT22;2527;50.892;16.706;2023-05-19T04:31:13;13.10;99.90
5017;DHT22;2527;50.892;16.706;2023-05-19T04:33:39;13.10;99.90
5017;DHT22;2527;50.892;16.706;2023-05-19T04:36:05;13.10;99.90
5017;DHT22;2527;50.892;16.706;2023-05-19T04:38:33;13.10;99.90
5017;DHT22;2527;50.892;16.706;2023-05-19T04:40:59;13.10;99.90
5017;DHT22;2527;50.892;16.706;2023-05-19T04:43:26;13.10;99.90
5017;DHT22;2527;50.892;16.706;2023-05-19T04:45:52;13.10;99.90
5017;DHT22;2527;50.892;16.706;2023-05-19T04:48:19;13.10;99.90
5017;DHT22;2527;50.892;16.706;2023-05-19T04:50:46;13.10;99.90
5017;DHT22;2527;50.892;16.706;2023-05-19T04:53:13;13.20;99.90
5017;DHT22;2527;50.892;16.706;2023-05-19T04:55:39;13.20;99.90
5017;DHT22;2527;50.892;16.706;2023-05-19T04:58:04;13.20;99.90
5017;DHT22;2527;50.892;16.706;2023-05-19T05:00:31;13.20;99.90
5017;DHT22;2527;50.892;16.706;2023-05-19T05:02:57;13.20;99.90
5017;DHT22;2527;50.892;16.706;2023-05-19T05:05:22;13.20;99.90
5017;DHT22;2527;50.892;16.706;2023-05-19T05:07:49;13.20;99.90
5017;DHT22;2527;50.892;16.706;2023-05-19T05:10:14;13.30;99.90
5017;DHT22;2527;50.892;16.706;2023-05-19T05:12:40;13.30;99.90
5017;DHT22;2527;50.892;16.706;2023-05-19T05:15:06;13.30;99.90
5017;DHT22;2527;50.892;16.706;2023-05-19T05:17:32;13.30;99.90
5017;DHT22;2527;50.892;16.706;2023-05-19T05:20:00;13.30;99.90
5017;DHT22;2527;50.892;16.706;2023-05-19T05:22:26;13.30;99.90
5017;DHT22;2527;50.892;16.706;2023-05-19T05:24:51;13.30;99.90
5017;DHT22;2527;50.892;16.706;2023-05-19T05:27:17;13.30;99.90
5017;DHT22;2527;50.892;16.706;2023-05-19T05:29:43;13.40;99.90
5017;DHT22;2527;50.892;16.706;2023-05-19T05:32:09;13.40;99.90
5017;DHT22;2527;50.892;16.706;2023-05-19T05:34:35;13.40;99.90
5017;DHT22;2527;50.892;16.706;2023-05-19T05:37:04;13.40;99.90
5017;DHT22;2527;50.892;16.706;2023-05-19T05:39:29;13.40;99.90
5017;DHT22;2527;50.892;16.706;2023-05-19T05:41:56;13.40;99.90
5017;DHT22;2527;50.892;16.706;2023-05-19T05:44:21;13.40;99.90
5017;DHT22;2527;50.892;16.706;2023-05-19T05:46:47;13.40;99.90
5017;DHT22;2527;50.892;16.706;2023-05-19T05:49:12;13.40;99.90
5017;DHT22;2527;50.892;16.706;2023-05-19T05:51:38;13.40;99.90
5017;DHT22;2527;50.892;16.706;2023-05-19T05:54:05;13.40;99.90
5017;DHT22;2527;50.892;16.706;2023-05-19T05:56:31;13.40;99.90
5017;DHT22;2527;50.892;16.706;2023-05-19T05:58:58;13.40;99.90
5017;DHT22;2527;50.892;16.706;2023-05-19T06:01:23;13.40;99.90
5017;DHT22;2527;50.892;16.706;2023-05-19T06:03:49;13.50;99.90
5017;DHT22;2527;50.892;16.706;2023-05-19T06:06:15;13.50;99.90
5017;DHT22;2527;50.892;16.706;2023-05-19T06:08:40;13.50;99.90
5017;DHT22;2527;50.892;16.706;2023-05-19T06:11:06;13.50;99.90
5017;DHT22;2527;50.892;16.706;2023-05-19T06:13:35;13.50;99.90
5017;DHT22;2527;50.892;16.706;2023-05-19T06:16:01;13.50;99.90
5017;DHT22;2527;50.892;16.706;2023-05-19T06:18:27;13.50;99.90
5017;DHT22;2527;50.892;16.706;2023-05-19T06:20:53;13.50;99.90
5017;DHT22;2527;50.892;16.706;2023-05-19T06:23:18;13.50;99.90
5017;DHT22;2527;50.892;16.706;2023-05-19T06:25:44;13.50;99.90
5017;DHT22;2527;50.892;16.706;2023-05-19T06:28:10;13.50;99.90
5017;DHT22;2527;50.892;16.706;2023-05-19T06:30:35;13.50;99.90
5017;DHT22;2527;50.892;16.706;2023-05-19T06:33:01;13.50;99.90
5017;DHT22;2527;50.892;16.706;2023-05-19T06:35:28;13.50;99.90
5017;DHT22;2527;50.892;16.706;2023-05-19T06:37:53;13.50;99.90
5017;DHT22;2527;50.892;16.706;2023-05-19T06:40:20;13.50;99.90
5017;DHT22;2527;50.892;16.706;2023-05-19T06:42:46;13.50;99.90
5017;DHT22;2527;50.892;16.706;2023-05-19T06:45:11;13.40;99.90
5017;DHT22;2527;50.892;16.706;2023-05-19T06:47:37;13.40;99.90
5017;DHT22;2527;50.892;16.706;2023-05-19T06:50:05;13.40;99.90
5017;DHT22;2527;50.892;16.706;2023-05-19T06:52:31;13.40;99.90
5017;DHT22;2527;50.892;16.706;2023-05-19T06:54:56;13.40;99.90
5017;DHT22;2527;50.892;16.706;2023-05-19T06:57:22;13.40;99.90
5017;DHT22;2527;50.892;16.706;2023-05-19T06:59:48;13.40;99.90
5017;DHT22;2527;50.892;16.706;2023-05-19T07:02:13;13.40;99.90
5017;DHT22;2527;50.892;16.706;2023-05-19T07:04:39;13.40;99.90
5017;DHT22;2527;50.892;16.706;2023-05-19T07:07:05;13.50;99.90
5017;DHT22;2527;50.892;16.706;2023-05-19T07:09:31;13.50;99.90
5017;DHT22;2527;50.892;16.706;2023-05-19T07:11:56;13.50;99.90
5017;DHT22;2527;50.892;16.706;2023-05-19T07:14:22;13.50;99.90
5017;DHT22;2527;50.892;16.706;2023-05-19T07:16:47;13.50;99.90
5017;DHT22;2527;50.892;16.706;2023-05-19T07:19:13;13.50;99.90
5017;DHT22;2527;50.892;16.706;2023-05-19T07:21:39;13.50;99.90
5017;DHT22;2527;50.892;16.706;2023-05-19T07:24:06;13.60;99.90
5017;DHT22;2527;50.892;16.706;2023-05-19T07:26:32;13.60;99.90
5017;DHT22;2527;50.892;16.706;2023-05-19T07:28:58;13.70;99.90
5017;DHT22;2527;50.892;16.706;2023-05-19T07:31:23;13.70;99.90
5017;DHT22;2527;50.892;16.706;2023-05-19T07:33:49;13.70;99.90
5017;DHT22;2527;50.892;16.706;2023-05-19T07:36:14;13.70;99.90
5017;DHT22;2527;50.892;16.706;2023-05-19T07:38:40;13.70;99.90
5017;DHT22;2527;50.892;16.706;2023-05-19T07:41:06;13.70;99.90
5017;DHT22;2527;50.892;16.706;2023-05-19T07:43:31;13.70;99.90
5017;DHT22;2527;50.892;16.706;2023-05-19T07:45:57;13.70;99.90
5017;DHT22;2527;50.892;16.706;2023-05-19T07:48:23;13.70;99.90
5017;DHT22;2527;50.892;16.706;2023-05-19T07:50:50;13.70;99.90
5017;DHT22;2527;50.892;16.706;2023-05-19T07:53:15;13.70;99.90
5017;DHT22;2527;50.892;16.706;2023-05-19T07:55:41;13.70;99.90
5017;DHT22;2527;50.892;16.706;2023-05-19T07:58:07;13.80;99.90
5017;DHT22;2527;50.892;16.706;2023-05-19T08:00:32;13.80;99.90
5017;DHT22;2527;50.892;16.706;2023-05-19T08:02:58;13.80;99.90
5017;DHT22;2527;50.892;16.706;2023-05-19T08:05:24;13.80;99.90
5017;DHT22;2527;50.892;16.706;2023-05-19T08:07:54;13.80;99.90
5017;DHT22;2527;50.892;16.706;2023-05-19T08:10:20;13.70;99.90
5017;DHT22;2527;50.892;16.706;2023-05-19T08:12:46;13.80;99.90
5017;DHT22;2527;50.892;16.706;2023-05-19T08:15:12;13.70;99.90
5017;DHT22;2527;50.892;16.706;2023-05-19T08:17:38;13.70;99.90
5017;DHT22;2527;50.892;16.706;2023-05-19T08:20:04;13.70;99.90
5017;DHT22;2527;50.892;16.706;2023-05-19T08:22:32;13.70;99.90
5017;DHT22;2527;50.892;16.706;2023-05-19T08:24:57;13.70;99.90
5017;DHT22;2527;50.892;16.706;2023-05-19T08:27:23;13.70;99.90
5017;DHT22;2527;50.892;16.706;2023-05-19T08:29:49;13.70;99.90
5017;DHT22;2527;50.892;16.706;2023-05-19T08:32:14;13.70;99.90
5017;DHT22;2527;50.892;16.706;2023-05-19T08:34:40;13.70;99.90
5017;DHT22;2527;50.892;16.706;2023-05-19T08:37:06;13.70;99.90
5017;DHT22;2527;50.892;16.706;2023-05-19T08:39:32;13.70;99.90
5017;DHT22;2527;50.892;16.706;2023-05-19T08:41:59;13.70;99.90
5017;DHT22;2527;50.892;16.706;2023-05-19T08:44:25;13.80;99.90
5017;DHT22;2527;50.892;16.706;2023-05-19T08:46:52;13.80;99.90
5017;DHT22;2527;50.892;16.706;2023-05-19T08:49:19;13.80;99.90
5017;DHT22;2527;50.892;16.706;2023-05-19T08:52:14;13.80;99.90
5017;DHT22;2527;50.892;16.706;2023-05-19T08:55:03;13.80;99.90
5017;DHT22;2527;50.892;16.706;2023-05-19T08:57:30;13.90;99.90
5017;DHT22;2527;50.892;16.706;2023-05-19T08:59:57;13.90;99.90
5017;DHT22;2527;50.892;16.706;2023-05-19T09:02:23;13.90;99.90
5017;DHT22;2527;50.892;16.706;2023-05-19T09:04:48;13.90;99.90
5017;DHT22;2527;50.892;16.706;2023-05-19T09:07:15;13.90;99.90
5017;DHT22;2527;50.892;16.706;2023-05-19T09:09:41;13.90;99.90
5017;DHT22;2527;50.892;16.706;2023-05-19T09:12:11;13.90;99.90
5017;DHT22;2527;50.892;16.706;2023-05-19T09:14:37;13.90;99.90
5017;DHT22;2527;50.892;16.706;2023-05-19T09:17:03;13.90;99.90
5017;DHT22;2527;50.892;16.706;2023-05-19T09:19:29;13.90;99.90
5017;DHT22;2527;50.892;16.706;2023-05-19T09:21:58;13.90;99.90
5017;DHT22;2527;50.892;16.706;2023-05-19T09:24:31;13.90;99.90
5017;DHT22;2527;50.892;16.706;2023-05-19T09:26:58;13.90;99.90
5017;DHT22;2527;50.892;16.706;2023-05-19T09:29:24;13.90;99.90
5017;DHT22;2527;50.892;16.706;2023-05-19T09:31:54;14.00;99.90
5017;DHT22;2527;50.892;16.706;2023-05-19T09:34:20;14.00;99.90
5017;DHT22;2527;50.892;16.706;2023-05-19T09:36:46;14.10;99.90
5017;DHT22;2527;50.892;16.706;2023-05-19T09:39:14;14.10;99.90
5017;DHT22;2527;50.892;16.706;2023-05-19T09:41:40;14.10;99.90
5017;DHT22;2527;50.892;16.706;2023-05-19T09:44:06;14.10;99.90
5017;DHT22;2527;50.892;16.706;2023-05-19T09:46:32;14.10;99.90
5017;DHT22;2527;50.892;16.706;2023-05-19T09:49:19;14.20;99.90
5017;DHT22;2527;50.892;16.706;2023-05-19T09:51:47;14.20;99.90
5017;DHT22;2527;50.892;16.706;2023-05-19T09:54:13;14.30;99.90
5017;DHT22;2527;50.892;16.706;2023-05-19T09:56:39;14.30;99.90
5017;DHT22;2527;50.892;16.706;2023-05-19T09:59:05;14.40;99.90
5017;DHT22;2527;50.892;16.706;2023-05-19T10:01:31;14.40;99.90
5017;DHT22;2527;50.892;16.706;2023-05-19T10:04:01;14.40;99.90
5017;DHT22;2527;50.892;16.706;2023-05-19T10:06:28;14.40;99.90
5017;DHT22;2527;50.892;16.706;2023-05-19T10:08:54;14.40;99.90
5017;DHT22;2527;50.892;16.706;2023-05-19T10:11:21;14.40;99.90
5017;DHT22;2527;50.892;16.706;2023-05-19T10:13:49;14.50;99.90
5017;DHT22;2527;50.892;16.706;2023-05-19T10:16:15;14.50;99.90
5017;DHT22;2527;50.892;16.706;2023-05-19T10:18:41;14.50;99.90
5017;DHT22;2527;50.892;16.706;2023-05-19T10:21:07;14.60;99.90
5017;DHT22;2527;50.892;16.706;2023-05-19T10:23:33;14.60;99.90
5017;DHT22;2527;50.892;16.706;2023-05-19T10:25:59;14.60;99.90
5017;DHT22;2527;50.892;16.706;2023-05-19T10:28:29;14.70;99.90
5017;DHT22;2527;50.892;16.706;2023-05-19T10:30:56;14.70;99.90
5017;DHT22;2527;50.892;16.706;2023-05-19T10:33:27;14.70;99.90
5017;DHT22;2527;50.892;16.706;2023-05-19T10:38:31;14.60;99.90
5017;DHT22;2527;50.892;16.706;2023-05-19T10:41:00;14.60;99.90
5017;DHT22;2527;50.892;16.706;2023-05-19T10:45:56;14.60;99.90
5017;DHT22;2527;50.892;16.706;2023-05-19T10:48:22;14.60;99.90
5017;DHT22;2527;50.892;16.706;2023-05-19T10:50:48;14.60;99.90
5017;DHT22;2527;50.892;16.706;2023-05-19T10:53:17;14.70;99.90
5017;DHT22;2527;50.892;16.706;2023-05-19T10:55:44;14.70;99.90
5017;DHT22;2527;50.892;16.706;2023-05-19T10:58:10;14.70;99.90
5017;DHT22;2527;50.892;16.706;2023-05-19T11:00:36;14.80;99.90
5017;DHT22;2527;50.892;16.706;2023-05-19T11:03:15;14.80;99.90
5017;DHT22;2527;50.892;16.706;2023-05-19T11:05:47;14.80;99.90
5017;DHT22;2527;50.892;16.706;2023-05-19T11:08:15;14.90;99.90
5017;DHT22;2527;50.892;16.706;2023-05-19T11:10:42;14.90;99.90
5017;DHT22;2527;50.892;16.706;2023-05-19T11:13:17;14.90;99.90
5017;DHT22;2527;50.892;16.706;2023-05-19T11:15:42;15.00;99.90
5017;DHT22;2527;50.892;16.706;2023-05-19T11:18:09;15.00;99.90
5017;DHT22;2527;50.892;16.706;2023-05-19T11:20:39;15.10;99.90
5017;DHT22;2527;50.892;16.706;2023-05-19T11:23:09;15.10;99.90
5017;DHT22;2527;50.892;16.706;2023-05-19T11:28:07;15.20;99.90
5017;DHT22;2527;50.892;16.706;2023-05-19T11:30:35;15.30;99.90
5017;DHT22;2527;50.892;16.706;2023-05-19T11:33:01;15.30;99.90
5017;DHT22;2527;50.892;16.706;2023-05-19T11:35:27;15.30;99.90
5017;DHT22;2527;50.892;16.706;2023-05-19T11:37:54;15.40;99.90
5017;DHT22;2527;50.892;16.706;2023-05-19T11:40:23;15.40;99.90
5017;DHT22;2527;50.892;16.706;2023-05-19T11:42:49;15.40;99.90
5017;DHT22;2527;50.892;16.706;2023-05-19T11:45:15;15.40;99.90
5017;DHT22;2527;50.892;16.706;2023-05-19T11:47:41;15.40;99.90
5017;DHT22;2527;50.892;16.706;2023-05-19T11:50:07;15.40;99.90
5017;DHT22;2527;50.892;16.706;2023-05-19T11:52:36;15.40;99.90
5017;DHT22;2527;50.892;16.706;2023-05-19T11:55:03;15.30;99.90
5017;DHT22;2527;50.892;16.706;2023-05-19T11:57:28;15.30;99.90
5017;DHT22;2527;50.892;16.706;2023-05-19T11:59:54;15.30;99.90
5017;DHT22;2527;50.892;16.706;2023-05-19T12:02:21;15.30;99.90
5017;DHT22;2527;50.892;16.706;2023-05-19T12:04:49;15.20;99.90
5017;DHT22;2527;50.892;16.706;2023-05-19T12:07:15;15.20;99.90
5017;DHT22;2527;50.892;16.706;2023-05-19T12:09:44;15.20;99.90
5017;DHT22;2527;50.892;16.706;2023-05-19T12:12:20;15.20;99.90
5017;DHT22;2527;50.892;16.706;2023-05-19T12:14:48;15.20;99.90
5017;DHT22;2527;50.892;16.706;2023-05-19T12:17:15;15.20;99.90
5017;DHT22;2527;50.892;16.706;2023-05-19T12:19:45;15.20;99.90
5017;DHT22;2527;50.892;16.706;2023-05-19T12:22:11;15.20;99.90
5017;DHT22;2527;50.892;16.706;2023-05-19T12:24:38;15.10;99.90
5017;DHT22;2527;50.892;16.706;2023-05-19T12:27:15;15.10;99.90
5017;DHT22;2527;50.892;16.706;2023-05-19T12:29:41;15.10;99.90
5017;DHT22;2527;50.892;16.706;2023-05-19T12:32:07;15.10;99.90
5017;DHT22;2527;50.892;16.706;2023-05-19T12:34:36;15.20;99.90
5017;DHT22;2527;50.892;16.706;2023-05-19T12:37:04;15.10;99.90
5017;DHT22;2527;50.892;16.706;2023-05-19T12:39:30;15.20;99.90
5017;DHT22;2527;50.892;16.706;2023-05-19T12:44:27;15.10;99.90
5017;DHT22;2527;50.892;16.706;2023-05-19T12:46:55;15.10;99.90
5017;DHT22;2527;50.892;16.706;2023-05-19T12:49:21;15.10;99.90
5017;DHT22;2527;50.892;16.706;2023-05-19T12:51:53;15.10;99.90
5017;DHT22;2527;50.892;16.706;2023-05-19T12:54:21;15.10;99.90
5017;DHT22;2527;50.892;16.706;2023-05-19T12:56:50;15.10;99.90
5017;DHT22;2527;50.892;16.706;2023-05-19T12:59:22;15.10;99.90
5017;DHT22;2527;50.892;16.706;2023-05-19T13:01:56;15.10;99.90
5017;DHT22;2527;50.892;16.706;2023-05-19T13:04:22;15.10;99.90
5017;DHT22;2527;50.892;16.706;2023-05-19T13:06:48;15.10;99.90
5017;DHT22;2527;50.892;16.706;2023-05-19T13:09:14;15.00;99.90
5017;DHT22;2527;50.892;16.706;2023-05-19T13:11:42;15.10;99.90
5017;DHT22;2527;50.892;16.706;2023-05-19T13:14:08;15.00;99.90
5017;DHT22;2527;50.892;16.706;2023-05-19T13:16:35;15.10;99.90
5017;DHT22;2527;50.892;16.706;2023-05-19T13:19:01;15.10;99.90
5017;DHT22;2527;50.892;16.706;2023-05-19T13:21:27;15.10;99.90
5017;DHT22;2527;50.892;16.706;2023-05-19T13:23:52;15.10;99.90
5017;DHT22;2527;50.892;16.706;2023-05-19T13:26:18;15.10;99.90
5017;DHT22;2527;50.892;16.706;2023-05-19T13:28:43;15.10;99.90
5017;DHT22;2527;50.892;16.706;2023-05-19T13:31:09;15.10;99.90
5017;DHT22;2527;50.892;16.706;2023-05-19T13:33:35;15.10;99.90
5017;DHT22;2527;50.892;16.706;2023-05-19T13:36:00;15.10;99.90
5017;DHT22;2527;50.892;16.706;2023-05-19T13:38:26;15.10;99.90
5017;DHT22;2527;50.892;16.706;2023-05-19T13:40:54;15.20;99.90
5017;DHT22;2527;50.892;16.706;2023-05-19T13:43:20;15.20;99.90
5017;DHT22;2527;50.892;16.706;2023-05-19T13:45:46;15.20;99.90
5017;DHT22;2527;50.892;16.706;2023-05-19T13:48:11;15.20;99.90
5017;DHT22;2527;50.892;16.706;2023-05-19T13:50:37;15.20;99.90
5017;DHT22;2527;50.892;16.706;2023-05-19T13:53:03;15.20;99.90
5017;DHT22;2527;50.892;16.706;2023-05-19T13:55:28;15.20;99.90
5017;DHT22;2527;50.892;16.706;2023-05-19T13:57:54;15.30;99.90
5017;DHT22;2527;50.892;16.706;2023-05-19T14:00:20;15.30;99.90
5017;DHT22;2527;50.892;16.706;2023-05-19T14:02:46;15.30;99.90
5017;DHT22;2527;50.892;16.706;2023-05-19T14:05:11;15.30;99.90
5017;DHT22;2527;50.892;16.706;2023-05-19T14:07:37;15.30;99.90
5017;DHT22;2527;50.892;16.706;2023-05-19T14:10:04;15.30;99.90
5017;DHT22;2527;50.892;16.706;2023-05-19T14:12:31;15.30;99.90
5017;DHT22;2527;50.892;16.706;2023-05-19T14:14:56;15.40;99.90
5017;DHT22;2527;50.892;16.706;2023-05-19T14:17:22;15.40;99.90
5017;DHT22;2527;50.892;16.706;2023-05-19T14:19:48;15.40;99.90
5017;DHT22;2527;50.892;16.706;2023-05-19T14:22:13;15.40;99.90
5017;DHT22;2527;50.892;16.706;2023-05-19T14:24:39;15.40;99.90
5017;DHT22;2527;50.892;16.706;2023-05-19T14:27:05;15.40;99.90
5017;DHT22;2527;50.892;16.706;2023-05-19T14:29:31;15.40;99.90
5017;DHT22;2527;50.892;16.706;2023-05-19T14:31:57;15.50;99.90
5017;DHT22;2527;50.892;16.706;2023-05-19T14:34:22;15.50;99.90
5017;DHT22;2527;50.892;16.706;2023-05-19T14:36:48;15.50;99.90
5017;DHT22;2527;50.892;16.706;2023-05-19T14:39:14;15.50;99.90
5017;DHT22;2527;50.892;16.706;2023-05-19T14:41:40;15.50;99.90
5017;DHT22;2527;50.892;16.706;2023-05-19T14:44:05;15.40;99.90
5017;DHT22;2527;50.892;16.706;2023-05-19T14:46:31;15.40;99.90
5017;DHT22;2527;50.892;16.706;2023-05-19T14:48:56;15.40;99.90
5017;DHT22;2527;50.892;16.706;2023-05-19T14:51:22;15.40;99.90
5017;DHT22;2527;50.892;16.706;2023-05-19T14:53:48;15.40;99.90
5017;DHT22;2527;50.892;16.706;2023-05-19T14:56:14;15.40;99.90
5017;DHT22;2527;50.892;16.706;2023-05-19T14:58:40;15.40;99.90
5017;DHT22;2527;50.892;16.706;2023-05-19T15:01:06;15.40;99.90
5017;DHT22;2527;50.892;16.706;2023-05-19T15:03:31;15.40;99.90
5017;DHT22;2527;50.892;16.706;2023-05-19T15:05:57;15.40;99.90
5017;DHT22;2527;50.892;16.706;2023-05-19T15:08:22;15.40;99.90
5017;DHT22;2527;50.892;16.706;2023-05-19T15:10:48;15.40;99.90
5017;DHT22;2527;50.892;16.706;2023-05-19T15:13:14;15.40;99.90
5017;DHT22;2527;50.892;16.706;2023-05-19T15:15:40;15.40;99.90
5017;DHT22;2527;50.892;16.706;2023-05-19T15:18:07;15.40;99.90
5017;DHT22;2527;50.892;16.706;2023-05-19T15:20:32;15.40;99.90
5017;DHT22;2527;50.892;16.706;2023-05-19T15:22:58;15.40;99.90
5017;DHT22;2527;50.892;16.706;2023-05-19T15:25:24;15.40;99.90
5017;DHT22;2527;50.892;16.706;2023-05-19T15:27:50;15.40;99.90
5017;DHT22;2527;50.892;16.706;2023-05-19T15:30:16;15.40;99.90
5017;DHT22;2527;50.892;16.706;2023-05-19T15:32:42;15.40;99.90
5017;DHT22;2527;50.892;16.706;2023-05-19T15:35:07;15.40;99.90
5017;DHT22;2527;50.892;16.706;2023-05-19T15:37:33;15.40;99.90
5017;DHT22;2527;50.892;16.706;2023-05-19T15:39:59;15.40;99.90
5017;DHT22;2527;50.892;16.706;2023-05-19T15:42:25;15.40;99.90
5017;DHT22;2527;50.892;16.706;2023-05-19T15:44:52;15.40;99.90
5017;DHT22;2527;50.892;16.706;2023-05-19T15:47:18;15.50;99.90
5017;DHT22;2527;50.892;16.706;2023-05-19T15:49:43;15.50;99.90
5017;DHT22;2527;50.892;16.706;2023-05-19T15:52:10;15.50;99.90
5017;DHT22;2527;50.892;16.706;2023-05-19T15:54:37;15.50;99.90
5017;DHT22;2527;50.892;16.706;2023-05-19T15:57:02;15.50;99.90
5017;DHT22;2527;50.892;16.706;2023-05-19T15:59:28;15.50;99.90
5017;DHT22;2527;50.892;16.706;2023-05-19T16:01:54;15.50;99.90